Time;durP1;ratioP1;P1;durP2;ratioP2;P2;SDS_P1;SDS_P2;PMS_P1;PMS_P2;Temp;Humidity;BMP_temperature;BMP_pressure;BME280_temperature;BME280_humidity;BME280_pressure;Samples;Min_cycle;Max_cycle;Signal;HPM_P1;HPM_P2
2023/10/28 00:01:22;;;;;;;2.50;2.30;;;10.60;99.90;;;;;;5053255;28;20206;-61
2023/10/28 00:03:49;;;;;;;4.67;2.60;;;10.60;99.90;;;;;;5053255;28;20531;-62
2023/10/28 00:06:17;;;;;;;3.30;3.10;;;10.70;99.90;;;;;;5052934;28;20486;-63
2023/10/28 00:08:44;;;;;;;8.23;3.03;;;10.70;99.90;;;;;;5053153;28;20471;-62
2023/10/28 00:11:11;;;;;;;11.13;3.22;;;10.70;99.90;;;;;;5053142;28;20212;-61
2023/10/28 00:13:39;;;;;;;4.10;3.70;;;10.70;99.90;;;;;;5053193;28;20587;-63
2023/10/28 00:16:06;;;;;;;3.28;3.03;;;10.80;99.90;;;;;;5052391;28;20535;-63
2023/10/28 00:18:33;;;;;;;6.60;2.80;;;10.80;99.90;;;;;;5053089;28;20222;-63
2023/10/28 00:21:00;;;;;;;4.28;3.08;;;10.80;99.90;;;;;;5053147;28;20440;-62
2023/10/28 00:23:31;;;;;;;2.70;2.50;;;10.80;99.90;;;;;;5052878;28;20672;-63
2023/10/28 00:26:02;;;;;;;4.38;2.08;;;10.80;99.90;;;;;;5052322;28;20484;-62
2023/10/28 00:28:28;;;;;;;3.87;2.13;;;10.80;99.90;;;;;;5053167;28;20210;-63
2023/10/28 00:30:55;;;;;;;5.00;2.60;;;10.80;99.90;;;;;;5052761;28;20449;-63
2023/10/28 00:33:21;;;;;;;4.57;2.80;;;10.80;99.90;;;;;;5052785;28;20297;-61
2023/10/28 00:35:48;;;;;;;4.95;3.00;;;10.80;99.90;;;;;;5052598;28;20202;-63
2023/10/28 00:38:15;;;;;;;3.83;2.37;;;10.90;99.90;;;;;;5052553;28;20228;-63
2023/10/28 00:40:44;;;;;;;3.07;2.43;;;10.90;99.90;;;;;;5052919;28;20535;-62
2023/10/28 00:43:11;;;;;;;3.33;2.50;;;10.90;99.90;;;;;;5052650;28;20969;-62
2023/10/28 00:45:38;;;;;;;4.50;3.20;;;10.90;99.90;;;;;;5052327;28;20488;-62
2023/10/28 00:48:06;;;;;;;3.00;2.80;;;10.90;99.90;;;;;;5052647;28;20465;-62
2023/10/28 00:50:33;;;;;;;3.97;2.67;;;10.90;99.90;;;;;;5052294;28;20537;-63
2023/10/28 00:53:02;;;;;;;4.23;3.00;;;10.90;99.90;;;;;;5052212;28;20492;-61
2023/10/28 00:55:30;;;;;;;3.43;3.13;;;10.90;99.90;;;;;;5052334;28;20524;-62
2023/10/28 00:57:59;;;;;;;2.60;2.17;;;10.90;99.90;;;;;;5051989;28;20506;-63
2023/10/28 01:00:26;;;;;;;11.47;2.83;;;10.90;99.90;;;;;;5052396;28;20529;-62
2023/10/28 01:02:53;;;;;;;2.80;2.60;;;10.90;99.90;;;;;;5052059;28;20451;-62
2023/10/28 01:05:22;;;;;;;3.40;3.10;;;10.90;99.90;;;;;;5051652;28;20484;-62
2023/10/28 01:07:50;;;;;;;4.22;2.95;;;10.90;99.90;;;;;;5051949;28;20480;-63
2023/10/28 01:10:28;;;;;;;4.63;3.00;;;10.90;99.90;;;;;;5051863;28;20210;-62
2023/10/28 01:12:55;;;;;;;4.20;2.60;;;10.90;99.90;;;;;;5052024;28;20632;-63
2023/10/28 01:15:24;;;;;;;3.95;2.55;;;10.90;99.90;;;;;;5051726;28;20293;-62
2023/10/28 01:17:51;;;;;;;3.13;2.83;;;10.90;99.90;;;;;;5051786;28;20233;-63
2023/10/28 01:20:18;;;;;;;2.03;1.93;;;10.90;99.90;;;;;;5051965;28;20479;-61
2023/10/28 01:22:46;;;;;;;2.60;2.40;;;10.90;99.90;;;;;;5051949;28;20532;-62
2023/10/28 01:25:13;;;;;;;2.90;2.70;;;10.90;99.90;;;;;;5051526;28;20675;-62
2023/10/28 01:27:43;;;;;;;3.07;2.70;;;10.90;99.90;;;;;;5051741;28;20473;-62
2023/10/28 01:30:14;;;;;;;2.63;2.43;;;10.90;99.90;;;;;;5051661;28;20526;-63
2023/10/28 01:32:41;;;;;;;2.70;2.50;;;10.90;99.90;;;;;;5051925;28;20444;-62
2023/10/28 01:35:10;;;;;;;2.90;2.17;;;10.90;99.90;;;;;;5047885;28;20445;-63
2023/10/28 01:37:38;;;;;;;2.50;2.20;;;10.90;99.90;;;;;;5049791;28;20468;-62
2023/10/28 01:40:12;;;;;;;3.23;2.40;;;10.90;99.90;;;;;;5043840;28;20670;-62
2023/10/28 01:42:40;;;;;;;3.90;3.60;;;10.90;99.90;;;;;;5031648;28;20504;-62
2023/10/28 01:45:09;;;;;;;3.50;3.27;;;10.90;99.90;;;;;;5030966;28;20493;-62
2023/10/28 01:47:36;;;;;;;4.00;3.30;;;10.90;99.90;;;;;;5031523;28;20543;-61
2023/10/28 01:50:03;;;;;;;3.30;2.33;;;10.90;99.90;;;;;;5031394;28;20452;-61
2023/10/28 01:52:30;;;;;;;3.13;2.83;;;10.90;99.90;;;;;;5030834;28;20519;-63
2023/10/28 01:54:57;;;;;;;2.87;2.67;;;10.90;99.90;;;;;;5030816;28;20442;-63
2023/10/28 01:57:25;;;;;;;4.03;3.33;;;10.90;99.90;;;;;;5030837;28;20567;-63
2023/10/28 01:59:52;;;;;;;2.77;2.43;;;10.90;99.90;;;;;;5031361;28;20450;-63
2023/10/28 02:02:19;;;;;;;3.70;2.90;;;10.90;99.90;;;;;;5030653;28;20452;-62
2023/10/28 02:04:46;;;;;;;5.20;2.90;;;10.90;99.90;;;;;;5030763;28;20889;-63
2023/10/28 02:07:13;;;;;;;2.67;2.40;;;10.90;99.90;;;;;;5030966;28;20557;-63
2023/10/28 02:09:40;;;;;;;2.90;2.70;;;10.90;99.90;;;;;;5031085;28;20441;-63
2023/10/28 02:12:06;;;;;;;2.70;2.10;;;10.90;99.90;;;;;;5031088;28;20450;-62
2023/10/28 02:14:35;;;;;;;2.93;2.60;;;10.90;99.90;;;;;;5031345;28;20892;-62
2023/10/28 02:17:02;;;;;;;2.10;2.00;;;10.90;99.90;;;;;;5031109;28;20907;-63
2023/10/28 02:19:29;;;;;;;3.10;2.90;;;10.90;99.90;;;;;;5030673;28;20968;-62
2023/10/28 02:21:58;;;;;;;3.47;3.17;;;10.90;99.90;;;;;;5031595;28;20947;-63
2023/10/28 02:24:25;;;;;;;3.20;2.90;;;10.90;99.90;;;;;;5034979;28;20958;-63
2023/10/28 02:26:52;;;;;;;3.70;2.53;;;10.90;99.90;;;;;;5035233;28;20484;-63
2023/10/28 02:29:19;;;;;;;2.80;2.60;;;10.90;99.90;;;;;;5034965;28;20449;-63
2023/10/28 02:31:48;;;;;;;2.70;2.57;;;10.90;99.90;;;;;;5035192;28;20441;-63
2023/10/28 02:34:15;;;;;;;3.33;2.20;;;10.90;99.90;;;;;;5034852;28;20806;-63
2023/10/28 02:36:42;;;;;;;2.50;2.30;;;10.90;99.90;;;;;;5034654;28;20472;-62
2023/10/28 02:39:11;;;;;;;2.40;2.20;;;10.90;99.90;;;;;;5034951;28;20551;-63
2023/10/28 02:41:39;;;;;;;1.87;1.77;;;10.90;99.90;;;;;;5035128;28;20539;-63
2023/10/28 02:44:06;;;;;;;2.10;1.97;;;11.00;99.90;;;;;;5034908;28;20449;-62
2023/10/28 02:46:33;;;;;;;2.23;2.13;;;11.00;99.90;;;;;;5034588;28;20950;-62
2023/10/28 02:49:01;;;;;;;1.83;1.63;;;10.90;99.90;;;;;;5034836;28;20442;-63
2023/10/28 02:51:28;;;;;;;1.80;1.70;;;10.90;99.90;;;;;;5034769;28;20450;-63
2023/10/28 02:53:55;;;;;;;2.80;2.60;;;10.90;99.90;;;;;;5034978;28;20460;-62
2023/10/28 02:56:22;;;;;;;1.10;1.10;;;10.90;99.90;;;;;;5034172;28;20481;-62
2023/10/28 02:58:49;;;;;;;4.13;1.90;;;10.90;99.90;;;;;;5034823;28;20534;-63
2023/10/28 03:01:16;;;;;;;1.83;1.73;;;10.90;99.90;;;;;;5034702;28;20945;-63
2023/10/28 03:03:43;;;;;;;3.93;1.90;;;10.90;99.90;;;;;;5034478;28;20494;-63
2023/10/28 03:06:11;;;;;;;1.73;1.33;;;10.90;99.90;;;;;;5033647;28;20976;-63
2023/10/28 03:08:38;;;;;;;1.03;0.93;;;10.80;99.90;;;;;;5034545;28;20477;-62
2023/10/28 03:11:05;;;;;;;0.97;0.70;;;10.80;99.90;;;;;;5034482;28;20445;-63
2023/10/28 03:13:32;;;;;;;0.97;0.97;;;10.80;99.90;;;;;;5034475;28;20532;-63
2023/10/28 03:15:59;;;;;;;0.63;0.63;;;10.80;99.90;;;;;;5033978;28;21013;-63
2023/10/28 03:18:26;;;;;;;0.47;0.47;;;10.80;99.90;;;;;;5034284;28;20442;-63
2023/10/28 03:20:55;;;;;;;0.63;0.63;;;10.80;99.90;;;;;;5034144;28;20536;-62
2023/10/28 03:23:24;;;;;;;0.70;0.70;;;10.70;99.90;;;;;;5034371;28;20515;-63
2023/10/28 03:25:50;;;;;;;0.60;0.60;;;10.70;99.90;;;;;;5033909;28;20577;-62
2023/10/28 03:28:17;;;;;;;0.57;0.57;;;10.70;99.90;;;;;;5034116;28;20670;-63
2023/10/28 03:30:44;;;;;;;0.50;0.50;;;10.70;99.90;;;;;;5034008;28;20528;-63
2023/10/28 03:33:11;;;;;;;0.50;0.40;;;10.70;99.90;;;;;;5033655;28;20215;-63
2023/10/28 03:35:38;;;;;;;0.60;0.60;;;10.70;99.90;;;;;;5032534;28;20442;-63
2023/10/28 03:38:05;;;;;;;0.50;0.50;;;10.70;99.90;;;;;;5033608;28;20223;-62
2023/10/28 03:40:33;;;;;;;3.30;0.90;;;10.70;99.90;;;;;;5033821;28;20987;-63
2023/10/28 03:43:00;;;;;;;0.60;0.60;;;10.70;99.90;;;;;;5033814;28;21003;-63
2023/10/28 03:45:28;;;;;;;0.40;0.40;;;10.60;99.90;;;;;;5033464;28;20231;-62
2023/10/28 03:47:54;;;;;;;0.70;0.70;;;10.60;99.90;;;;;;5033629;28;21227;-63
2023/10/28 03:50:21;;;;;;;0.70;0.70;;;10.60;99.90;;;;;;5033930;28;20460;-63
2023/10/28 03:52:48;;;;;;;0.70;0.67;;;10.60;99.90;;;;;;5033827;28;20537;-63
2023/10/28 03:55:15;;;;;;;0.50;0.50;;;10.60;99.90;;;;;;5033429;28;20553;-63
2023/10/28 03:57:44;;;;;;;1.33;1.00;;;10.50;99.90;;;;;;5033428;28;20853;-63
2023/10/28 04:00:13;;;;;;;0.63;0.63;;;10.50;99.90;;;;;;5033565;28;20920;-63
2023/10/28 04:02:40;;;;;;;0.93;0.40;;;10.50;99.90;;;;;;5033676;28;20511;-62
2023/10/28 04:05:07;;;;;;;0.70;0.70;;;10.50;99.90;;;;;;5033374;28;20214;-63
2023/10/28 04:07:34;;;;;;;5.23;0.90;;;10.50;99.90;;;;;;5033360;28;20577;-63
2023/10/28 04:10:04;;;;;;;1.80;0.90;;;10.40;99.90;;;;;;5033466;28;20450;-63
2023/10/28 04:12:32;;;;;;;1.07;0.70;;;10.50;99.90;;;;;;5033288;28;20450;-63
2023/10/28 04:15:00;;;;;;;1.60;1.53;;;10.40;99.90;;;;;;5033162;28;20453;-63
2023/10/28 04:17:30;;;;;;;0.90;0.80;;;10.40;99.90;;;;;;5033310;28;20564;-62
2023/10/28 04:19:57;;;;;;;0.90;0.70;;;10.40;99.90;;;;;;5033242;28;20489;-63
2023/10/28 04:22:24;;;;;;;1.00;1.00;;;10.30;99.90;;;;;;5033187;28;20446;-62
2023/10/28 04:24:51;;;;;;;1.55;1.00;;;10.30;99.90;;;;;;5031721;28;20377;-63
2023/10/28 04:27:18;;;;;;;1.97;1.30;;;10.30;99.90;;;;;;5032914;28;20237;-63
2023/10/28 04:29:45;;;;;;;1.60;0.80;;;10.30;99.90;;;;;;5033033;28;20544;-63
2023/10/28 04:32:14;;;;;;;1.33;0.83;;;10.30;99.90;;;;;;5032856;28;20450;-62
2023/10/28 04:34:41;;;;;;;1.40;1.00;;;10.30;99.90;;;;;;5032719;28;20634;-63
2023/10/28 04:37:07;;;;;;;1.10;1.02;;;10.30;99.90;;;;;;5032946;28;20226;-62
2023/10/28 04:39:34;;;;;;;1.67;1.00;;;10.30;99.90;;;;;;5032854;28;20213;-63
2023/10/28 04:42:01;;;;;;;1.00;0.90;;;10.30;99.90;;;;;;5032878;28;20210;-63
2023/10/28 04:44:28;;;;;;;2.00;1.00;;;10.30;99.90;;;;;;5032107;28;20587;-62
2023/10/28 04:46:55;;;;;;;1.23;1.10;;;10.30;99.90;;;;;;5031874;28;20481;-63
2023/10/28 04:49:23;;;;;;;2.55;1.10;;;10.30;99.90;;;;;;5032563;28;20455;-63
2023/10/28 04:51:50;;;;;;;1.10;1.10;;;10.30;99.90;;;;;;5032759;28;20238;-64
2023/10/28 04:54:17;;;;;;;1.10;1.00;;;10.30;99.90;;;;;;5032622;28;20445;-62
2023/10/28 04:56:44;;;;;;;2.73;1.10;;;10.30;99.90;;;;;;5031780;28;20227;-62
2023/10/28 04:59:11;;;;;;;0.90;0.90;;;10.40;99.90;;;;;;5046467;22;20537;-64
2023/10/28 05:01:38;;;;;;;3.40;1.10;;;10.30;99.90;;;;;;5032915;28;20681;-64
2023/10/28 05:04:05;;;;;;;1.30;1.13;;;10.40;99.90;;;;;;5033022;28;20437;-64
2023/10/28 05:06:33;;;;;;;1.67;1.48;;;10.40;99.90;;;;;;5032457;28;20485;-64
2023/10/28 05:09:00;;;;;;;1.40;1.17;;;10.40;99.90;;;;;;5032891;28;20327;-64
2023/10/28 05:11:27;;;;;;;1.60;1.50;;;10.30;99.90;;;;;;5032937;28;20464;-64
2023/10/28 05:13:54;;;;;;;1.93;1.80;;;10.40;99.90;;;;;;5032805;28;20986;-64
2023/10/28 05:16:23;;;;;;;4.03;1.48;;;10.40;99.90;;;;;;5032259;28;20524;-64
2023/10/28 05:18:50;;;;;;;1.93;1.20;;;10.40;99.90;;;;;;5032631;28;20222;-64
2023/10/28 05:21:16;;;;;;;1.50;1.40;;;10.40;99.90;;;;;;5032960;28;20849;-63
2023/10/28 05:23:45;;;;;;;1.70;1.60;;;10.40;99.90;;;;;;5032450;28;20464;-64
2023/10/28 05:26:11;;;;;;;2.85;2.28;;;10.40;99.90;;;;;;5032158;28;20477;-64
2023/10/28 05:28:38;;;;;;;2.73;2.40;;;10.50;99.90;;;;;;5032402;28;20235;-64
2023/10/28 05:31:06;;;;;;;2.83;1.87;;;10.40;99.90;;;;;;5032981;28;20556;-64
2023/10/28 05:33:33;;;;;;;5.43;2.40;;;10.50;99.90;;;;;;5032418;28;20449;-64
2023/10/28 05:35:59;;;;;;;4.00;2.15;;;10.40;99.90;;;;;;5031757;28;20474;-64
2023/10/28 05:38:26;;;;;;;2.38;2.28;;;10.40;99.90;;;;;;5032393;28;20210;-63
2023/10/28 05:40:55;;;;;;;1.90;1.80;;;10.40;99.90;;;;;;5032352;28;20707;-64
2023/10/28 05:43:22;;;;;;;4.83;2.90;;;10.40;99.90;;;;;;5032263;28;20231;-64
2023/10/28 05:45:49;;;;;;;2.70;2.50;;;10.40;99.90;;;;;;5031710;28;20446;-64
2023/10/28 05:48:17;;;;;;;2.90;1.80;;;10.40;99.90;;;;;;5032158;28;20951;-64
2023/10/28 05:50:43;;;;;;;3.27;3.03;;;10.40;99.90;;;;;;5031980;28;20476;-64
2023/10/28 05:53:10;;;;;;;3.93;2.47;;;10.50;99.90;;;;;;5032362;28;20441;-64
2023/10/28 05:55:37;;;;;;;6.17;3.27;;;10.50;99.90;;;;;;5031814;28;20445;-64
2023/10/28 05:58:06;;;;;;;4.90;4.20;;;10.50;99.90;;;;;;5032051;28;20446;-64
2023/10/28 06:00:33;;;;;;;3.20;2.50;;;10.40;99.90;;;;;;5031789;28;20296;-64
2023/10/28 06:03:00;;;;;;;2.53;2.30;;;10.50;99.90;;;;;;5031722;28;20450;-64
2023/10/28 06:05:27;;;;;;;1.93;1.80;;;10.50;99.90;;;;;;5031906;28;20813;-63
2023/10/28 06:07:53;;;;;;;2.70;2.50;;;10.50;99.90;;;;;;5031843;28;20485;-64
2023/10/28 06:10:22;;;;;;;2.60;1.93;;;10.50;99.90;;;;;;5031602;28;20469;-64
2023/10/28 06:12:49;;;;;;;1.90;1.80;;;10.50;99.90;;;;;;5031974;28;20866;-63
2023/10/28 06:15:18;;;;;;;3.03;1.87;;;10.50;99.90;;;;;;5031543;28;20891;-63
2023/10/28 06:17:45;;;;;;;2.17;1.97;;;10.50;99.90;;;;;;5028323;28;20961;-64
2023/10/28 06:20:12;;;;;;;4.13;3.80;;;10.50;99.90;;;;;;5031148;28;20847;-64
2023/10/28 06:22:39;;;;;;;3.47;2.38;;;10.60;99.90;;;;;;5031439;28;20442;-64
2023/10/28 06:25:07;;;;;;;2.17;2.07;;;10.60;99.90;;;;;;5031086;28;20207;-64
2023/10/28 06:27:34;;;;;;;5.17;2.17;;;10.60;99.90;;;;;;5031147;28;20485;-64
2023/10/28 06:30:01;;;;;;;4.40;2.77;;;10.70;99.90;;;;;;5031040;28;20855;-63
2023/10/28 06:32:30;;;;;;;2.10;1.90;;;10.60;99.90;;;;;;5031108;28;20446;-63
2023/10/28 06:34:56;;;;;;;3.00;2.50;;;10.60;99.90;;;;;;5030649;28;20450;-64
2023/10/28 06:37:24;;;;;;;3.70;1.87;;;10.60;99.90;;;;;;5030866;28;20537;-64
2023/10/28 06:39:51;;;;;;;2.50;1.90;;;10.70;99.90;;;;;;5031120;28;20500;-63
2023/10/28 06:42:17;;;;;;;2.40;2.07;;;10.70;99.90;;;;;;5031197;28;20458;-63
2023/10/28 06:44:44;;;;;;;3.03;2.27;;;10.70;99.90;;;;;;5030811;28;20446;-64
2023/10/28 06:47:11;;;;;;;4.97;2.30;;;10.70;99.90;;;;;;5031363;28;20581;-63
2023/10/28 06:49:41;;;;;;;4.35;2.05;;;10.80;99.90;;;;;;5031120;28;20975;-63
2023/10/28 06:52:09;;;;;;;3.63;2.20;;;10.80;99.90;;;;;;5031223;28;20604;-64
2023/10/28 06:54:37;;;;;;;2.77;2.17;;;10.80;99.90;;;;;;5031042;28;20889;-64
2023/10/28 06:57:04;;;;;;;3.43;1.63;;;10.80;99.90;;;;;;5030571;28;20441;-64
2023/10/28 06:59:34;;;;;;;4.53;1.80;;;10.80;99.90;;;;;;5030785;28;20477;-64
2023/10/28 07:02:01;;;;;;;2.87;1.83;;;10.80;99.90;;;;;;5031079;28;20488;-63
2023/10/28 07:04:28;;;;;;;2.30;1.93;;;10.80;99.90;;;;;;5031038;28;20453;-63
2023/10/28 07:06:56;;;;;;;2.47;1.50;;;10.80;99.90;;;;;;5030561;28;20585;-63
2023/10/28 07:09:23;;;;;;;5.17;2.17;;;10.90;99.90;;;;;;5021686;28;20473;-64
2023/10/28 07:11:50;;;;;;;3.47;2.27;;;10.90;99.90;;;;;;5032008;28;20446;-64
2023/10/28 07:14:17;;;;;;;3.63;1.67;;;10.90;99.90;;;;;;5023116;28;20834;-63
2023/10/28 07:16:43;;;;;;;3.57;2.23;;;10.90;99.90;;;;;;5030444;28;20450;-63
2023/10/28 07:19:12;;;;;;;1.80;1.57;;;10.90;99.90;;;;;;5032285;28;21010;-63
2023/10/28 07:21:39;;;;;;;3.03;1.83;;;11.00;99.90;;;;;;5030175;28;20862;-63
2023/10/28 07:24:11;;;;;;;3.50;1.80;;;11.00;99.90;;;;;;5027663;28;20459;-63
2023/10/28 07:26:38;;;;;;;2.37;2.07;;;11.00;99.90;;;;;;5032895;28;20495;-63
2023/10/28 07:29:07;;;;;;;5.93;1.83;;;11.00;99.90;;;;;;5030228;28;20470;-63
2023/10/28 07:31:35;;;;;;;5.00;3.33;;;11.00;99.90;;;;;;5030722;28;20450;-64
2023/10/28 07:34:02;;;;;;;3.53;1.97;;;11.10;99.90;;;;;;5024302;28;21954;-63
2023/10/28 07:36:29;;;;;;;3.07;2.27;;;11.10;99.90;;;;;;5028285;28;20449;-64
2023/10/28 07:38:56;;;;;;;1.80;1.70;;;11.10;99.90;;;;;;5031132;28;20539;-63
2023/10/28 07:41:24;;;;;;;2.23;1.50;;;11.10;99.90;;;;;;5030587;28;20450;-64
2023/10/28 07:43:51;;;;;;;1.90;1.80;;;11.10;99.90;;;;;;5023630;28;20537;-64
2023/10/28 07:46:18;;;;;;;2.00;1.50;;;11.20;99.90;;;;;;5027947;28;20449;-63
2023/10/28 07:48:44;;;;;;;3.13;1.83;;;11.20;99.90;;;;;;5029316;28;20486;-64
2023/10/28 07:51:13;;;;;;;3.47;1.63;;;11.30;99.90;;;;;;5030041;28;20462;-64
2023/10/28 07:53:40;;;;;;;2.53;2.10;;;11.30;99.90;;;;;;5023571;28;20442;-64
2023/10/28 07:56:07;;;;;;;9.40;1.70;;;11.30;99.90;;;;;;5029673;28;20457;-64
2023/10/28 07:58:36;;;;;;;5.43;2.43;;;11.30;99.90;;;;;;5028034;28;21040;-63
2023/10/28 08:01:03;;;;;;;3.97;2.10;;;11.30;99.90;;;;;;5020776;28;20454;-63
2023/10/28 08:03:32;;;;;;;2.70;2.00;;;11.30;99.90;;;;;;5025511;28;20457;-63
2023/10/28 08:05:59;;;;;;;2.80;2.57;;;11.30;99.90;;;;;;5026008;28;20545;-63
2023/10/28 08:08:30;;;;;;;5.37;2.80;;;11.30;99.90;;;;;;5030611;28;20495;-64
2023/10/28 08:11:01;;;;;;;3.53;1.67;;;11.40;99.90;;;;;;5026832;28;20524;-63
2023/10/28 08:13:28;;;;;;;2.43;1.60;;;11.50;99.90;;;;;;5021787;28;20454;-63
2023/10/28 08:15:56;;;;;;;3.20;2.00;;;11.50;99.90;;;;;;5021386;28;20459;-62
2023/10/28 08:18:23;;;;;;;2.40;1.67;;;11.50;99.90;;;;;;5024428;28;20454;-63
2023/10/28 08:20:50;;;;;;;3.63;1.77;;;11.60;99.90;;;;;;5027493;28;20473;-63
2023/10/28 08:23:17;;;;;;;1.70;1.60;;;11.70;99.90;;;;;;5020218;28;20464;-63
2023/10/28 08:25:44;;;;;;;3.87;2.00;;;11.80;99.90;;;;;;5024305;28;21055;-64
2023/10/28 08:28:10;;;;;;;2.23;2.10;;;11.90;99.90;;;;;;5021022;28;20576;-63
2023/10/28 08:30:37;;;;;;;2.83;1.70;;;11.90;99.90;;;;;;5018075;28;20485;-63
2023/10/28 08:33:05;;;;;;;1.40;1.30;;;11.90;99.90;;;;;;5019336;28;20456;-64
2023/10/28 08:35:34;;;;;;;1.67;1.50;;;12.00;99.90;;;;;;5019677;28;20451;-62
2023/10/28 08:38:05;;;;;;;3.77;1.57;;;12.10;99.90;;;;;;5019825;28;20593;-63
2023/10/28 08:40:32;;;;;;;3.83;1.53;;;12.10;99.90;;;;;;5019194;28;20565;-64
2023/10/28 08:42:59;;;;;;;2.43;1.77;;;12.10;99.90;;;;;;5019285;28;20449;-63
2023/10/28 08:45:30;;;;;;;2.20;2.00;;;12.10;99.90;;;;;;5019361;28;20453;-64
2023/10/28 08:47:58;;;;;;;1.50;1.40;;;12.00;99.90;;;;;;5019926;28;21030;-63
2023/10/28 08:50:26;;;;;;;2.73;1.60;;;12.00;99.90;;;;;;5019393;28;20473;-63
2023/10/28 08:52:57;;;;;;;1.40;1.13;;;12.00;99.90;;;;;;5022551;28;20457;-63
2023/10/28 08:55:24;;;;;;;1.50;1.40;;;12.00;99.90;;;;;;5025886;28;20461;-63
2023/10/28 08:57:52;;;;;;;4.13;1.90;;;12.00;99.90;;;;;;5026495;28;20452;-63
2023/10/28 09:00:22;;;;;;;3.10;2.00;;;11.90;99.90;;;;;;5025452;28;20480;-63
2023/10/28 09:02:50;;;;;;;2.17;1.90;;;12.00;99.90;;;;;;5024593;28;20537;-63
2023/10/28 09:05:19;;;;;;;2.47;2.27;;;12.00;99.90;;;;;;5023401;28;20534;-63
2023/10/28 09:07:48;;;;;;;3.23;2.80;;;12.00;99.90;;;;;;5021583;28;20498;-63
2023/10/28 09:10:16;;;;;;;3.10;1.73;;;12.00;99.90;;;;;;5018865;28;20565;-63
2023/10/28 09:12:43;;;;;;;2.33;1.80;;;12.00;99.90;;;;;;5023098;28;20529;-63
2023/10/28 09:15:12;;;;;;;4.20;1.90;;;12.10;99.90;;;;;;5022644;28;20470;-63
2023/10/28 09:17:39;;;;;;;7.30;4.80;;;12.10;99.90;;;;;;5023222;28;20536;-63
2023/10/28 09:20:11;;;;;;;1.77;1.67;;;12.10;99.90;;;;;;5021748;28;20480;-63
2023/10/28 09:22:39;;;;;;;2.83;1.43;;;12.10;99.90;;;;;;5020201;28;20464;-63
2023/10/28 09:25:10;;;;;;;2.17;1.97;;;12.10;99.90;;;;;;5024523;28;20457;-63
2023/10/28 09:27:37;;;;;;;1.57;1.47;;;12.00;99.90;;;;;;5021407;28;20915;-64
2023/10/28 09:30:05;;;;;;;3.07;1.60;;;12.00;99.90;;;;;;5025434;28;20916;-63
2023/10/28 09:32:34;;;;;;;2.77;1.50;;;11.90;99.90;;;;;;5024371;28;20472;-64
2023/10/28 09:35:05;;;;;;;1.87;1.70;;;12.00;99.90;;;;;;5020362;28;20453;-64
2023/10/28 09:37:33;;;;;;;1.67;1.57;;;11.90;99.90;;;;;;5024078;28;20447;-64
2023/10/28 09:40:02;;;;;;;2.53;1.70;;;11.90;99.90;;;;;;5022086;28;20564;-63
2023/10/28 09:42:32;;;;;;;2.50;1.80;;;11.90;99.90;;;;;;5025109;28;20457;-64
2023/10/28 09:44:59;;;;;;;3.40;1.97;;;11.90;99.90;;;;;;5025886;28;20455;-63
2023/10/28 09:47:35;;;;;;;5.80;1.93;;;12.00;99.90;;;;;;5023286;28;20501;-63
2023/10/28 09:50:06;;;;;;;2.63;1.57;;;12.00;99.90;;;;;;5026077;28;20479;-63
2023/10/28 09:52:36;;;;;;;1.50;1.40;;;12.00;99.90;;;;;;5024432;28;20476;-63
2023/10/28 09:55:06;;;;;;;2.00;1.20;;;12.00;99.90;;;;;;5025389;28;20495;-64
2023/10/28 09:57:35;;;;;;;6.10;2.83;;;12.00;99.90;;;;;;5025714;28;20451;-63
2023/10/28 10:00:10;;;;;;;3.15;2.28;;;12.10;99.90;;;;;;4988655;28;1072471;-63
2023/10/28 10:02:48;;;;;;;2.40;2.30;;;12.20;99.90;;;;;;5023805;28;20203;-63
2023/10/28 10:05:21;;;;;;;3.67;2.03;;;12.20;99.90;;;;;;5024338;28;20468;-64
2023/10/28 10:07:47;;;;;;;2.27;1.60;;;12.30;99.90;;;;;;5018322;28;20580;-63
2023/10/28 10:10:16;;;;;;;3.40;1.80;;;12.30;99.90;;;;;;5024509;28;20473;-64
2023/10/28 10:12:45;;;;;;;3.40;1.90;;;12.40;99.90;;;;;;5022254;28;20472;-64
2023/10/28 10:15:14;;;;;;;3.37;1.77;;;12.40;99.90;;;;;;5023014;28;20458;-63
2023/10/28 10:17:50;;;;;;;2.30;1.70;;;12.50;99.90;;;;;;5023385;28;20442;-64
2023/10/28 10:20:25;;;;;;;3.60;1.73;;;12.60;99.90;;;;;;5022964;28;21074;-64
2023/10/28 10:23:00;;;;;;;3.50;1.57;;;12.60;99.90;;;;;;5020870;28;20452;-63
2023/10/28 10:25:34;;;;;;;2.20;1.60;;;12.70;99.90;;;;;;5024846;28;20968;-63
2023/10/28 10:28:15;;;;;;;6.33;1.90;;;12.70;99.90;;;;;;5025077;28;20489;-63
2023/10/28 10:30:42;;;;;;;4.03;1.80;;;12.80;99.90;;;;;;5025747;28;20500;-64
2023/10/28 10:33:09;;;;;;;2.07;1.33;;;12.90;99.90;;;;;;5024719;28;20871;-64
2023/10/28 10:35:37;;;;;;;2.47;2.10;;;12.90;99.90;;;;;;5025271;28;20449;-64
2023/10/28 10:38:04;;;;;;;2.20;1.47;;;13.00;99.90;;;;;;5022834;28;20448;-64
2023/10/28 10:40:33;;;;;;;11.87;1.87;;;13.10;99.90;;;;;;5020503;28;20574;-63
2023/10/28 10:43:05;;;;;;;1.73;1.53;;;13.20;99.90;;;;;;5025195;28;21405;-63
2023/10/28 10:45:35;;;;;;;1.80;1.40;;;13.30;99.90;;;;;;5029469;28;20540;-63
2023/10/28 10:48:03;;;;;;;4.67;1.70;;;13.30;99.90;;;;;;5024997;28;20687;-63
2023/10/28 10:50:31;;;;;;;1.60;1.50;;;13.30;99.90;;;;;;5025737;28;20485;-63
2023/10/28 10:52:58;;;;;;;3.17;1.50;;;13.40;99.90;;;;;;5022726;28;20451;-64
2023/10/28 10:55:27;;;;;;;2.27;1.73;;;13.40;99.90;;;;;;5028989;28;20506;-63
2023/10/28 10:57:54;;;;;;;2.37;1.13;;;13.40;99.90;;;;;;5021182;28;20462;-63
2023/10/28 11:00:22;;;;;;;2.00;1.23;;;13.40;99.90;;;;;;5021393;28;20485;-63
2023/10/28 11:02:53;;;;;;;1.33;1.20;;;13.40;99.90;;;;;;5020519;28;20461;-63
2023/10/28 11:05:20;;;;;;;3.90;1.50;;;13.40;99.90;;;;;;5020547;28;20991;-63
2023/10/28 11:07:47;;;;;;;7.93;1.90;;;13.50;99.90;;;;;;5021158;28;20491;-63
2023/10/28 11:10:14;;;;;;;1.30;1.30;;;13.60;99.90;;;;;;5023722;28;20852;-63
2023/10/28 11:12:42;;;;;;;4.40;1.63;;;13.70;99.90;;;;;;5028323;28;20528;-63
2023/10/28 11:15:10;;;;;;;5.73;2.10;;;13.80;99.90;;;;;;5027433;28;20458;-63
2023/10/28 11:17:37;;;;;;;2.70;1.50;;;13.80;99.90;;;;;;5023829;28;20457;-64
2023/10/28 11:20:07;;;;;;;1.83;1.50;;;13.90;99.90;;;;;;5023145;28;20497;-64
2023/10/28 11:22:34;;;;;;;1.93;1.73;;;13.80;99.90;;;;;;5023300;28;20478;-64
2023/10/28 11:25:04;;;;;;;4.27;3.30;;;13.80;99.90;;;;;;5025048;28;20534;-63
2023/10/28 11:27:31;;;;;;;4.00;2.53;;;13.80;99.90;;;;;;5026112;28;20827;-63
2023/10/28 11:29:58;;;;;;;2.73;2.47;;;13.80;99.90;;;;;;5028464;28;20560;-64
2023/10/28 11:32:26;;;;;;;4.93;2.23;;;13.80;99.90;;;;;;5028956;28;20568;-63
2023/10/28 11:34:53;;;;;;;2.03;1.60;;;13.80;99.90;;;;;;5027195;28;20467;-64
2023/10/28 11:37:21;;;;;;;2.43;1.53;;;13.80;99.90;;;;;;5028211;28;20450;-63
2023/10/28 11:39:49;;;;;;;3.33;2.27;;;13.70;99.90;;;;;;5026009;28;21007;-63
2023/10/28 11:42:19;;;;;;;1.53;1.43;;;13.70;99.90;;;;;;5024868;28;20964;-64
2023/10/28 11:44:49;;;;;;;5.27;1.73;;;13.70;99.90;;;;;;5023646;28;20446;-64
2023/10/28 11:47:17;;;;;;;1.57;1.47;;;13.60;99.90;;;;;;5026950;28;20804;-63
2023/10/28 11:49:44;;;;;;;2.07;1.17;;;13.60;99.90;;;;;;5029498;28;20492;-63
2023/10/28 11:52:12;;;;;;;2.10;1.77;;;13.60;99.90;;;;;;5019325;28;20529;-63
2023/10/28 11:54:41;;;;;;;1.63;1.37;;;13.60;99.90;;;;;;5027273;28;20461;-63
2023/10/28 11:57:08;;;;;;;1.60;1.50;;;13.60;99.90;;;;;;5027855;28;20471;-63
2023/10/28 11:59:35;;;;;;;4.50;1.80;;;13.60;99.90;;;;;;5026708;28;20576;-62
2023/10/28 12:02:03;;;;;;;5.43;2.83;;;13.60;99.90;;;;;;5025704;28;20536;-63
2023/10/28 12:04:30;;;;;;;1.77;1.50;;;13.60;99.90;;;;;;5023821;28;20553;-64
2023/10/28 12:06:59;;;;;;;1.93;1.80;;;13.60;99.90;;;;;;5027352;28;21326;-63
2023/10/28 12:09:28;;;;;;;3.60;1.20;;;13.60;99.90;;;;;;5021943;28;20490;-64
2023/10/28 12:11:56;;;;;;;2.60;1.33;;;13.70;99.90;;;;;;5025819;28;20516;-63
2023/10/28 12:14:24;;;;;;;5.00;2.60;;;13.70;99.90;;;;;;5027906;28;20454;-63
2023/10/28 12:16:51;;;;;;;4.67;2.30;;;13.70;99.90;;;;;;5026719;28;20533;-63
2023/10/28 12:19:18;;;;;;;6.23;2.60;;;13.80;99.90;;;;;;5029032;28;20462;-63
2023/10/28 12:21:44;;;;;;;5.80;2.50;;;13.80;99.90;;;;;;5025374;28;20505;-63
2023/10/28 12:24:12;;;;;;;3.50;2.83;;;13.90;99.90;;;;;;5031903;28;20444;-63
2023/10/28 12:26:38;;;;;;;3.93;2.30;;;13.80;99.90;;;;;;5029687;28;20832;-64
2023/10/28 12:29:07;;;;;;;6.00;2.50;;;13.80;99.90;;;;;;5028214;28;20493;-64
2023/10/28 12:31:34;;;;;;;6.30;2.00;;;13.90;99.90;;;;;;5029213;28;20450;-64
2023/10/28 12:34:03;;;;;;;4.67;2.27;;;13.80;99.90;;;;;;5017888;28;20903;-63
2023/10/28 12:36:30;;;;;;;5.97;1.90;;;13.80;99.90;;;;;;5022743;28;20447;-63
2023/10/28 12:38:56;;;;;;;5.80;1.87;;;13.80;99.90;;;;;;5029383;28;20562;-64
2023/10/28 12:41:24;;;;;;;2.30;1.53;;;13.70;99.90;;;;;;5029910;28;20961;-64
2023/10/28 12:43:51;;;;;;;2.20;1.70;;;13.70;99.90;;;;;;5019334;28;20470;-63
2023/10/28 12:46:20;;;;;;;7.03;2.13;;;13.70;99.90;;;;;;5025649;28;20438;-63
2023/10/28 12:48:47;;;;;;;7.63;1.93;;;13.70;99.90;;;;;;5021753;28;20486;-63